createdAt,value
2022-11-24T00:00:20.696Z,20.88
2022-11-24T00:00:52.604Z,20.38
2022-11-24T00:01:29.531Z,20.83
2022-11-24T00:02:01.246Z,20.63
2022-11-24T00:02:32.919Z,21.25
2022-11-24T00:03:05.745Z,20.80
2022-11-24T00:03:37.819Z,20.35
2022-11-24T00:04:11.633Z,21.20
2022-11-24T00:04:43.136Z,20.95
2022-11-24T00:05:14.762Z,20.92
2022-11-24T00:05:46.297Z,21.98
2022-11-24T00:06:17.858Z,21.33
2022-11-24T00:06:49.375Z,21.35
2022-11-24T00:07:20.974Z,20.05
2022-11-24T00:07:52.618Z,20.85
2022-11-24T00:08:24.180Z,21.73
2022-11-24T00:08:56.753Z,21.02
2022-11-24T00:09:28.254Z,21.38
2022-11-24T00:09:59.749Z,20.83
2022-11-24T00:10:31.266Z,21.95
2022-11-24T00:11:12.059Z,20.75
2022-11-24T00:11:43.600Z,20.70
2022-11-24T00:12:15.109Z,21.05
2022-11-24T00:12:46.618Z,21.23
2022-11-24T00:13:18.129Z,21.45
2022-11-24T00:13:50.500Z,21.33
2022-11-24T00:14:22.125Z,21.27
2022-11-24T00:14:53.630Z,22.00
2022-11-24T00:15:25.286Z,22.20
2022-11-24T00:16:05.052Z,20.67
2022-11-24T00:16:38.098Z,21.52
2022-11-24T00:17:09.716Z,21.13
2022-11-24T00:17:41.275Z,22.42
2022-11-24T00:18:12.795Z,21.80
2022-11-24T00:18:47.562Z,20.92
2022-11-24T00:19:19.847Z,21.27
2022-11-24T00:19:51.599Z,21.75
2022-11-24T00:20:23.109Z,22.17
2022-11-24T00:20:54.659Z,22.67
2022-11-24T00:21:27.613Z,25.52
2022-11-24T00:21:59.193Z,28.80
2022-11-24T00:22:30.865Z,25.92
2022-11-24T00:23:02.404Z,30.70
2022-11-24T00:23:34.868Z,30.42
2022-11-24T00:24:06.894Z,29.73
2022-11-24T00:24:38.469Z,28.40
2022-11-24T00:25:10.055Z,26.75
2022-11-24T00:25:41.580Z,27.30
2022-11-24T00:26:15.930Z,26.70
2022-11-24T00:26:47.469Z,23.70
2022-11-24T00:27:19.059Z,24.83
2022-11-24T00:27:50.567Z,28.58
2022-11-24T00:28:22.075Z,28.30
2022-11-24T00:28:58.536Z,26.88
2022-11-24T00:29:30.033Z,26.75
2022-11-24T00:30:01.612Z,25.25
2022-11-24T00:30:34.068Z,25.90
2022-11-24T00:31:23.853Z,26.17
2022-11-24T00:31:56.550Z,24.05
2022-11-24T00:32:29.544Z,25.88
2022-11-24T00:33:01.071Z,27.25
2022-11-24T00:33:32.740Z,27.65
2022-11-24T00:34:07.403Z,26.45
2022-11-24T00:34:39.003Z,26.60
2022-11-24T00:35:10.583Z,27.52
2022-11-24T00:35:42.115Z,26.45
2022-11-24T00:36:14.490Z,25.35
2022-11-24T00:36:46.012Z,25.33
2022-11-24T00:37:17.521Z,23.63
2022-11-24T00:37:49.058Z,23.67
2022-11-24T00:38:20.590Z,23.40
2022-11-24T00:38:57.479Z,24.00
2022-11-24T00:39:29.013Z,24.65
2022-11-24T00:40:00.526Z,24.02
2022-11-24T00:40:34.953Z,27.73
2022-11-24T00:41:06.959Z,25.48
2022-11-24T00:41:38.911Z,27.80
2022-11-24T00:42:10.438Z,26.75
2022-11-24T00:42:41.979Z,26.05
2022-11-24T00:43:13.576Z,27.75
2022-11-24T00:43:45.097Z,29.35
2022-11-24T00:44:16.699Z,27.35
2022-11-24T00:44:48.196Z,29.75
2022-11-24T00:45:19.712Z,33.90
2022-11-24T00:45:51.395Z,31.00
2022-11-24T00:46:24.060Z,32.03
2022-11-24T00:46:55.726Z,32.65
2022-11-24T00:47:28.796Z,34.88
2022-11-24T00:48:00.322Z,34.05
2022-11-24T00:48:31.896Z,29.95
2022-11-24T00:49:03.683Z,28.42
2022-11-24T00:49:36.322Z,29.77
2022-11-24T00:50:08.225Z,28.10
2022-11-24T00:50:39.949Z,26.60
2022-11-24T00:51:13.420Z,27.25
2022-11-24T00:51:44.969Z,25.70
2022-11-24T00:52:16.562Z,26.45
2022-11-24T00:52:48.064Z,26.48
2022-11-24T00:53:19.591Z,25.05
2022-11-24T00:53:51.293Z,26.70
2022-11-24T00:54:23.069Z,26.98
2022-11-24T00:54:54.610Z,26.70
2022-11-24T00:55:26.213Z,28.08
2022-11-24T00:55:57.888Z,26.63
2022-11-24T00:56:29.815Z,26.98
2022-11-24T00:57:01.360Z,26.08
2022-11-24T00:57:35.130Z,27.25
2022-11-24T00:58:06.635Z,26.35
2022-11-24T00:58:38.488Z,25.25
2022-11-24T00:59:10.098Z,26.30
2022-11-24T00:59:41.618Z,26.48
2022-11-24T01:00:14.024Z,25.75
2022-11-24T01:00:45.544Z,25.80
2022-11-24T01:01:19.968Z,26.58
2022-11-24T01:01:51.660Z,26.27
2022-11-24T01:02:23.262Z,26.50
2022-11-24T01:02:54.841Z,25.88
2022-11-24T01:03:26.449Z,27.77
2022-11-24T01:04:01.352Z,27.17
2022-11-24T01:04:33.088Z,26.83
2022-11-24T01:05:05.276Z,27.05
2022-11-24T01:05:37.558Z,25.67
2022-11-24T01:06:14.617Z,27.35
2022-11-24T01:06:46.128Z,26.52
2022-11-24T01:07:17.739Z,26.23
2022-11-24T01:07:49.410Z,25.83
2022-11-24T01:08:20.994Z,25.33
2022-11-24T01:08:52.677Z,25.75
2022-11-24T01:09:24.296Z,25.95
2022-11-24T01:09:55.838Z,25.60
2022-11-24T01:10:27.397Z,26.17
2022-11-24T01:11:17.041Z,26.02
2022-11-24T01:12:04.212Z,24.90
2022-11-24T01:12:35.890Z,24.88
2022-11-24T01:13:07.479Z,24.75
2022-11-24T01:13:39.797Z,25.40
2022-11-24T01:14:11.310Z,25.52
2022-11-24T01:14:42.900Z,26.00
2022-11-24T01:15:14.469Z,23.60
2022-11-24T01:15:46.106Z,24.60
2022-11-24T01:16:29.540Z,26.88
2022-11-24T01:17:01.111Z,25.10
2022-11-24T01:17:32.636Z,24.88
2022-11-24T01:18:04.629Z,24.52
2022-11-24T01:18:36.161Z,24.20
2022-11-24T01:19:07.710Z,24.58
2022-11-24T01:19:39.221Z,24.25
2022-11-24T01:20:11.416Z,25.20
2022-11-24T01:20:42.945Z,24.98
2022-11-24T01:21:15.448Z,25.08
2022-11-24T01:21:47.268Z,25.10
2022-11-24T01:22:18.952Z,24.95
2022-11-24T01:22:50.504Z,25.40
2022-11-24T01:23:22.034Z,25.77
2022-11-24T01:23:53.549Z,24.67
2022-11-24T01:24:25.233Z,25.95
2022-11-24T01:24:56.745Z,26.25
2022-11-24T01:25:28.270Z,24.55
2022-11-24T01:25:59.835Z,26.33
2022-11-24T01:26:31.410Z,25.27
2022-11-24T01:27:02.963Z,25.60
2022-11-24T01:27:34.486Z,25.13
2022-11-24T01:28:05.987Z,24.58
2022-11-24T01:28:40.652Z,24.88
2022-11-24T01:29:16.585Z,23.17
2022-11-24T01:29:48.114Z,24.90
2022-11-24T01:30:19.912Z,25.95
2022-11-24T01:31:01.984Z,23.98
2022-11-24T01:31:33.582Z,24.08
2022-11-24T01:32:05.134Z,25.67
2022-11-24T01:32:37.342Z,24.85
2022-11-24T01:33:08.865Z,24.08
2022-11-24T01:33:40.420Z,24.70
2022-11-24T01:34:13.328Z,26.17
2022-11-24T01:34:44.846Z,24.10
2022-11-24T01:35:16.433Z,24.38
2022-11-24T01:35:47.949Z,23.83
2022-11-24T01:36:19.964Z,25.20
2022-11-24T01:36:51.481Z,22.70
2022-11-24T01:37:22.976Z,24.35
2022-11-24T01:37:54.500Z,25.75
2022-11-24T01:38:27.041Z,24.95
2022-11-24T01:38:58.554Z,24.42
2022-11-24T01:39:30.128Z,23.55
2022-11-24T01:40:01.700Z,23.92
2022-11-24T01:40:33.211Z,22.95
2022-11-24T01:41:08.772Z,24.55
2022-11-24T01:41:40.352Z,24.60
2022-11-24T01:42:11.916Z,25.05
2022-11-24T01:42:48.119Z,24.00
2022-11-24T01:43:21.535Z,24.15
2022-11-24T01:43:55.220Z,23.02
2022-11-24T01:44:29.202Z,24.00
2022-11-24T01:45:31.924Z,23.70
2022-11-24T01:46:28.388Z,22.50
2022-11-24T01:47:08.038Z,21.60
2022-11-24T01:47:43.636Z,23.33
2022-11-24T01:48:27.467Z,22.95
2022-11-24T01:49:08.868Z,22.17
2022-11-24T01:49:50.642Z,21.50
2022-11-24T01:50:22.913Z,21.77
2022-11-24T01:51:03.946Z,23.20
2022-11-24T01:51:46.460Z,22.42
2022-11-24T01:52:26.980Z,23.05
2022-11-24T01:52:58.587Z,22.95
2022-11-24T01:53:30.658Z,21.85
2022-11-24T01:54:07.858Z,23.30
2022-11-24T01:54:46.049Z,23.85
2022-11-24T01:55:25.637Z,22.27
2022-11-24T01:55:58.092Z,22.55
2022-11-24T01:56:30.894Z,23.60
2022-11-24T01:57:29.843Z,23.80
2022-11-24T01:58:18.528Z,23.35
2022-11-24T01:58:52.258Z,22.35
2022-11-24T01:59:25.375Z,23.02
2022-11-24T02:00:02.007Z,21.88
2022-11-24T02:01:13.801Z,22.10
2022-11-24T02:01:46.964Z,23.20
2022-11-24T02:02:19.584Z,22.42
2022-11-24T02:02:51.300Z,22.98
2022-11-24T02:03:28.169Z,22.45
2022-11-24T02:04:04.398Z,23.27
2022-11-24T02:04:37.076Z,22.20
2022-11-24T02:05:20.079Z,21.73
2022-11-24T02:06:04.905Z,21.48
2022-11-24T02:06:38.921Z,23.30
2022-11-24T02:07:12.617Z,21.95
2022-11-24T02:07:45.003Z,22.25
2022-11-24T02:08:43.928Z,23.02
2022-11-24T02:09:32.655Z,21.55
2022-11-24T02:10:10.797Z,21.80
2022-11-24T02:10:44.008Z,22.95
2022-11-24T02:11:15.649Z,22.02
2022-11-24T02:11:47.287Z,21.15
2022-11-24T02:12:18.874Z,22.23
2022-11-24T02:12:52.202Z,22.08
2022-11-24T02:13:24.971Z,22.77
2022-11-24T02:13:57.471Z,22.98
2022-11-24T02:14:29.187Z,23.30
2022-11-24T02:15:01.196Z,24.27
2022-11-24T02:15:34.470Z,22.70
2022-11-24T02:16:09.018Z,22.88
2022-11-24T02:16:42.802Z,22.10
2022-11-24T02:17:14.449Z,24.00
2022-11-24T02:17:46.027Z,22.50
2022-11-24T02:18:17.548Z,22.60
2022-11-24T02:18:49.147Z,23.45
2022-11-24T02:19:33.685Z,23.25
2022-11-24T02:20:08.566Z,22.92
2022-11-24T02:20:40.139Z,23.48
2022-11-24T02:21:14.713Z,23.70
2022-11-24T02:21:46.333Z,22.38
2022-11-24T02:22:25.936Z,22.33
2022-11-24T02:23:05.371Z,22.30
2022-11-24T02:24:00.560Z,23.10
2022-11-24T02:24:47.270Z,21.98
2022-11-24T02:25:56.107Z,21.70
2022-11-24T02:26:46.948Z,23.88
2022-11-24T02:27:19.340Z,22.80
2022-11-24T02:27:54.083Z,24.13
2022-11-24T02:28:29.671Z,22.10
2022-11-24T02:29:02.109Z,24.83
2022-11-24T02:29:33.914Z,22.20
2022-11-24T02:30:05.791Z,25.40
2022-11-24T02:30:37.549Z,26.17
2022-11-24T02:31:09.219Z,24.17
2022-11-24T02:31:51.249Z,23.05
2022-11-24T02:32:23.383Z,23.63
2022-11-24T02:32:55.053Z,23.40
2022-11-24T02:33:27.101Z,23.90
2022-11-24T02:33:58.739Z,24.08
2022-11-24T02:34:30.314Z,24.13
2022-11-24T02:35:05.075Z,23.25
2022-11-24T02:35:36.635Z,24.13
2022-11-24T02:36:08.237Z,25.50
2022-11-24T02:36:39.782Z,22.95
2022-11-24T02:37:11.372Z,25.23
2022-11-24T02:37:42.918Z,23.73
2022-11-24T02:38:14.490Z,23.35
2022-11-24T02:38:45.999Z,23.90
2022-11-24T02:39:17.608Z,24.25
2022-11-24T02:39:49.154Z,25.48
2022-11-24T02:40:25.636Z,23.95
2022-11-24T02:40:59.327Z,25.40
2022-11-24T02:41:31.073Z,24.77
2022-11-24T02:42:08.116Z,25.17
2022-11-24T02:42:44.348Z,23.25
2022-11-24T02:43:21.859Z,23.17
2022-11-24T02:43:56.535Z,23.15
2022-11-24T02:44:32.812Z,23.60
2022-11-24T02:45:05.047Z,24.85
2022-11-24T02:45:36.583Z,24.02
2022-11-24T02:46:09.304Z,24.67
2022-11-24T02:46:41.091Z,24.50
2022-11-24T02:47:13.611Z,24.60
2022-11-24T02:47:46.015Z,24.40
2022-11-24T02:48:17.641Z,24.48
2022-11-24T02:48:49.259Z,24.30
2022-11-24T02:49:20.782Z,24.90
2022-11-24T02:49:52.346Z,23.85
2022-11-24T02:50:24.010Z,24.77
2022-11-24T02:50:55.526Z,23.40
2022-11-24T02:51:27.989Z,25.15
2022-11-24T02:51:59.704Z,23.10
2022-11-24T02:52:31.539Z,22.83
2022-11-24T02:53:03.080Z,23.25
2022-11-24T02:53:34.789Z,24.13
2022-11-24T02:54:06.314Z,25.63
2022-11-24T02:54:37.846Z,25.88
2022-11-24T02:55:09.740Z,25.23
2022-11-24T02:55:41.315Z,25.00
2022-11-24T02:56:12.991Z,24.55
2022-11-24T02:56:44.499Z,25.80
2022-11-24T02:57:16.030Z,24.25
2022-11-24T02:57:47.547Z,24.33
2022-11-24T02:58:19.094Z,22.35
2022-11-24T02:58:50.593Z,23.55
2022-11-24T02:59:22.481Z,25.33
2022-11-24T02:59:54.016Z,23.83
2022-11-24T03:00:25.547Z,24.58
2022-11-24T03:00:57.979Z,25.38
2022-11-24T03:01:29.563Z,24.10
2022-11-24T03:02:01.217Z,23.15
2022-11-24T03:02:32.839Z,24.65
2022-11-24T03:03:04.558Z,22.95
2022-11-24T03:03:36.343Z,23.00
2022-11-24T03:04:07.965Z,24.88
2022-11-24T03:04:39.518Z,23.95
2022-11-24T03:05:12.084Z,24.50
2022-11-24T03:05:43.613Z,25.50
2022-11-24T03:06:15.148Z,25.55
2022-11-24T03:06:46.710Z,25.95
2022-11-24T03:07:18.401Z,24.15
2022-11-24T03:07:49.990Z,26.60
2022-11-24T03:08:21.618Z,24.92
2022-11-24T03:08:53.163Z,26.45
2022-11-24T03:09:24.677Z,25.23
2022-11-24T03:09:56.236Z,26.08
2022-11-24T03:10:28.496Z,25.10
2022-11-24T03:11:01.701Z,25.15
2022-11-24T03:11:33.236Z,25.20
2022-11-24T03:12:04.885Z,25.50
2022-11-24T03:12:36.483Z,26.30
2022-11-24T03:13:08.266Z,25.55
2022-11-24T03:13:39.779Z,25.27
2022-11-24T03:14:11.355Z,25.55
2022-11-24T03:14:42.864Z,24.83
2022-11-24T03:15:14.435Z,25.55
2022-11-24T03:15:46.137Z,26.00
2022-11-24T03:16:17.781Z,26.05
2022-11-24T03:16:49.361Z,26.33
2022-11-24T03:17:20.891Z,25.48
2022-11-24T03:17:56.743Z,24.63
2022-11-24T03:18:28.295Z,24.88
2022-11-24T03:19:00.469Z,23.88
2022-11-24T03:19:33.013Z,25.35
2022-11-24T03:20:05.471Z,23.90
2022-11-24T03:20:37.253Z,26.13
2022-11-24T03:21:09.135Z,24.80
2022-11-24T03:21:40.657Z,24.95
2022-11-24T03:22:14.761Z,24.88
2022-11-24T03:22:46.309Z,24.30
2022-11-24T03:23:17.866Z,24.45
2022-11-24T03:23:49.412Z,23.70
2022-11-24T03:24:21.127Z,24.38
2022-11-24T03:24:53.280Z,24.23
2022-11-24T03:25:24.802Z,23.02
2022-11-24T03:26:07.250Z,23.48
2022-11-24T03:26:38.775Z,22.98
2022-11-24T03:27:10.319Z,23.30
2022-11-24T03:27:41.913Z,22.17
2022-11-24T03:28:13.417Z,23.70
2022-11-24T03:28:45.207Z,21.73
2022-11-24T03:29:16.949Z,22.55
2022-11-24T03:29:48.477Z,22.67
2022-11-24T03:30:20.122Z,22.83
2022-11-24T03:30:51.707Z,22.48
2022-11-24T03:31:24.280Z,21.48
2022-11-24T03:31:55.865Z,22.48
2022-11-24T03:32:27.449Z,23.60
2022-11-24T03:32:59.007Z,21.92
2022-11-24T03:33:30.601Z,22.17
2022-11-24T03:34:02.231Z,23.52
2022-11-24T03:34:33.929Z,21.67
2022-11-24T03:35:06.117Z,20.90
2022-11-24T03:35:37.622Z,22.60
2022-11-24T03:36:09.635Z,22.75
2022-11-24T03:36:41.156Z,22.50
2022-11-24T03:37:12.692Z,23.27
2022-11-24T03:37:44.228Z,21.50
2022-11-24T03:38:15.724Z,21.30
2022-11-24T03:38:47.325Z,21.70
2022-11-24T03:39:18.833Z,21.20
2022-11-24T03:39:50.359Z,22.25
2022-11-24T03:40:21.868Z,21.63
2022-11-24T03:40:53.421Z,22.48
2022-11-24T03:41:24.926Z,21.88
2022-11-24T03:41:56.464Z,21.33
2022-11-24T03:42:28.208Z,21.88
2022-11-24T03:42:59.704Z,21.98
2022-11-24T03:43:32.021Z,22.08
2022-11-24T03:44:03.683Z,21.23
2022-11-24T03:44:35.440Z,22.15
2022-11-24T03:45:44.726Z,22.17
2022-11-24T03:45:59.116Z,21.17
2022-11-24T03:46:30.734Z,21.50
2022-11-24T03:47:02.376Z,21.35
2022-11-24T03:47:33.889Z,22.92
2022-11-24T03:48:06.364Z,19.98
2022-11-24T03:48:37.942Z,22.27
2022-11-24T03:49:09.994Z,20.88
2022-11-24T03:49:41.567Z,22.80
2022-11-24T03:50:13.076Z,22.42
2022-11-24T03:50:52.836Z,23.77
2022-11-24T03:51:24.378Z,22.83
2022-11-24T03:51:55.912Z,22.27
2022-11-24T03:52:27.474Z,22.85
2022-11-24T03:52:58.987Z,22.05
2022-11-24T03:53:32.124Z,22.55
2022-11-24T03:54:03.752Z,22.15
2022-11-24T03:54:35.712Z,21.73
2022-11-24T03:55:07.709Z,22.17
2022-11-24T03:55:39.231Z,23.20
2022-11-24T03:56:10.769Z,23.13
2022-11-24T03:56:42.773Z,21.67
2022-11-24T03:57:14.502Z,24.05
2022-11-24T03:57:46.108Z,22.17
2022-11-24T03:58:17.855Z,22.92
2022-11-24T03:58:50.046Z,22.92
2022-11-24T03:59:21.774Z,22.08
2022-11-24T03:59:53.285Z,23.25
2022-11-24T04:00:24.817Z,23.02
2022-11-24T04:00:57.115Z,22.63
2022-11-24T04:01:28.704Z,24.45
2022-11-24T04:02:00.387Z,24.40
2022-11-24T04:02:31.993Z,24.05
2022-11-24T04:03:03.716Z,23.17
2022-11-24T04:03:35.279Z,23.77
2022-11-24T04:04:06.820Z,23.27
2022-11-24T04:04:38.330Z,23.38
2022-11-24T04:05:10.314Z,23.00
2022-11-24T04:05:41.843Z,22.83
2022-11-24T04:06:13.362Z,22.65
2022-11-24T04:06:44.889Z,23.52
2022-11-24T04:07:17.139Z,24.10
2022-11-24T04:07:48.757Z,23.88
2022-11-24T04:08:20.684Z,23.63
2022-11-24T04:08:52.331Z,23.70
2022-11-24T04:09:23.882Z,24.30
2022-11-24T04:09:55.373Z,24.60
2022-11-24T04:10:26.949Z,23.88
2022-11-24T04:10:59.122Z,23.45
2022-11-24T04:11:49.172Z,24.05
2022-11-24T04:12:38.832Z,23.00
2022-11-24T04:13:13.464Z,21.83
2022-11-24T04:13:47.420Z,23.63
2022-11-24T04:14:19.458Z,24.23
2022-11-24T04:14:51.205Z,25.17
2022-11-24T04:15:22.744Z,23.45
2022-11-24T04:15:54.629Z,24.13
2022-11-24T04:16:26.431Z,23.80
2022-11-24T04:16:58.109Z,24.35
2022-11-24T04:17:29.641Z,24.70
2022-11-24T04:18:01.176Z,24.13
2022-11-24T04:18:32.729Z,24.40
2022-11-24T04:19:04.404Z,24.00
2022-11-24T04:19:35.910Z,25.08
2022-11-24T04:20:08.471Z,24.55
2022-11-24T04:20:41.044Z,24.38
2022-11-24T04:21:12.569Z,23.30
2022-11-24T04:21:44.085Z,25.05
2022-11-24T04:22:15.600Z,22.80
2022-11-24T04:22:47.170Z,25.88
2022-11-24T04:23:19.264Z,25.40
2022-11-24T04:23:50.793Z,25.77
2022-11-24T04:24:22.372Z,26.52
2022-11-24T04:24:53.933Z,25.35
2022-11-24T04:25:25.493Z,25.92
2022-11-24T04:25:56.997Z,24.70
2022-11-24T04:26:28.553Z,24.42
2022-11-24T04:27:00.081Z,24.33
2022-11-24T04:27:35.006Z,23.95
2022-11-24T04:28:06.587Z,24.05
2022-11-24T04:28:38.537Z,25.27
2022-11-24T04:29:10.153Z,24.30
2022-11-24T04:29:41.755Z,23.67
2022-11-24T04:30:13.325Z,25.02
2022-11-24T04:30:45.257Z,25.23
2022-11-24T04:31:17.062Z,24.73
2022-11-24T04:31:48.633Z,25.05
2022-11-24T04:32:20.545Z,23.90
2022-11-24T04:32:52.184Z,23.95
2022-11-24T04:33:23.926Z,25.15
2022-11-24T04:33:55.417Z,23.40
2022-11-24T04:34:26.965Z,23.20
2022-11-24T04:34:58.500Z,24.85
2022-11-24T04:35:30.268Z,23.98
2022-11-24T04:36:01.801Z,24.58
2022-11-24T04:36:33.346Z,23.48
2022-11-24T04:37:05.290Z,24.92
2022-11-24T04:37:36.915Z,24.42
2022-11-24T04:38:08.637Z,25.10
2022-11-24T04:39:23.289Z,24.77
2022-11-24T04:39:31.670Z,24.50
2022-11-24T04:40:04.973Z,23.38
2022-11-24T04:40:37.349Z,22.80
2022-11-24T04:41:09.261Z,23.73
2022-11-24T04:41:40.768Z,24.40
2022-11-24T04:42:13.174Z,23.88
2022-11-24T04:42:51.742Z,24.48
2022-11-24T04:43:23.275Z,24.02
2022-11-24T04:43:54.827Z,24.48
2022-11-24T04:44:26.923Z,23.45
2022-11-24T04:44:58.426Z,23.65
2022-11-24T04:45:29.968Z,24.90
2022-11-24T04:46:01.995Z,23.83
2022-11-24T04:46:33.593Z,24.05
2022-11-24T04:47:05.420Z,22.98
2022-11-24T04:47:37.067Z,23.27
2022-11-24T04:48:08.581Z,23.33
2022-11-24T04:48:40.080Z,22.35
2022-11-24T04:49:11.801Z,24.42
2022-11-24T04:49:43.389Z,22.02
2022-11-24T04:50:15.007Z,22.27
2022-11-24T04:50:46.551Z,23.65
2022-11-24T04:51:18.066Z,22.95
2022-11-24T04:51:49.790Z,23.25
2022-11-24T04:52:22.954Z,22.27
2022-11-24T04:52:54.463Z,22.92
2022-11-24T04:53:25.984Z,23.02
2022-11-24T04:53:57.496Z,21.95
2022-11-24T04:54:29.000Z,22.73
2022-11-24T04:55:00.556Z,22.23
2022-11-24T04:55:32.060Z,23.85
2022-11-24T04:56:07.093Z,22.38
2022-11-24T04:56:39.595Z,22.17
2022-11-24T04:57:23.128Z,21.95
2022-11-24T04:57:54.665Z,24.25
2022-11-24T04:58:26.163Z,22.85
2022-11-24T04:58:57.733Z,23.02
2022-11-24T04:59:29.317Z,23.90
2022-11-24T05:00:00.822Z,23.02
2022-11-24T05:00:32.334Z,22.08
2022-11-24T05:01:07.219Z,22.80
2022-11-24T05:01:38.795Z,22.35
2022-11-24T05:02:10.700Z,22.65
2022-11-24T05:02:42.434Z,22.25
2022-11-24T05:03:13.957Z,22.55
2022-11-24T05:03:45.533Z,22.25
2022-11-24T05:04:17.315Z,23.05
2022-11-24T05:04:49.061Z,22.63
2022-11-24T05:05:20.598Z,23.70
2022-11-24T05:05:52.108Z,23.38
2022-11-24T05:06:23.783Z,22.52
2022-11-24T05:06:55.286Z,22.42
2022-11-24T05:07:27.272Z,22.88
2022-11-24T05:07:59.900Z,22.05
2022-11-24T05:08:31.610Z,22.33
2022-11-24T05:09:03.663Z,22.45
2022-11-24T05:09:59.359Z,23.17
2022-11-24T05:10:37.267Z,20.48
2022-11-24T05:11:08.788Z,21.85
2022-11-24T05:11:42.793Z,22.30
2022-11-24T05:12:14.334Z,21.98
2022-11-24T05:12:51.071Z,21.95
2022-11-24T05:13:23.020Z,20.95
2022-11-24T05:13:54.577Z,20.95
2022-11-24T05:14:27.968Z,22.58
2022-11-24T05:15:03.800Z,22.52
2022-11-24T05:15:37.441Z,21.88
2022-11-24T05:16:09.425Z,22.20
2022-11-24T05:16:41.017Z,21.73
2022-11-24T05:17:12.586Z,22.33
2022-11-24T05:17:44.121Z,21.60
2022-11-24T05:18:16.671Z,23.15
2022-11-24T05:18:48.300Z,23.73
2022-11-24T05:19:20.112Z,22.42
2022-11-24T05:19:51.665Z,25.17
2022-11-24T05:20:23.498Z,25.13
2022-11-24T05:20:55.358Z,25.08
2022-11-24T05:21:27.948Z,25.80
2022-11-24T05:21:59.492Z,24.58
2022-11-24T05:22:31.822Z,23.33
2022-11-24T05:23:05.021Z,22.73
2022-11-24T05:23:36.607Z,23.65
2022-11-24T05:24:08.383Z,22.45
2022-11-24T05:24:39.987Z,23.85
2022-11-24T05:25:11.769Z,23.50
2022-11-24T05:25:47.478Z,22.35
2022-11-24T05:26:19.523Z,21.73
2022-11-24T05:26:51.138Z,22.98
2022-11-24T05:27:22.811Z,22.52
2022-11-24T05:27:54.389Z,22.75
2022-11-24T05:28:25.972Z,21.98
2022-11-24T05:28:57.510Z,21.50
2022-11-24T05:29:29.075Z,22.35
2022-11-24T05:30:00.683Z,20.83
2022-11-24T05:30:32.766Z,22.88
2022-11-24T05:31:05.024Z,21.52
2022-11-24T05:31:36.620Z,22.08
2022-11-24T05:32:08.223Z,22.30
2022-11-24T05:32:39.896Z,20.98
2022-11-24T05:33:19.081Z,21.40
2022-11-24T05:33:50.895Z,20.92
2022-11-24T05:34:22.481Z,22.05
2022-11-24T05:34:54.720Z,21.23
2022-11-24T05:35:26.335Z,21.73
2022-11-24T05:36:01.722Z,21.92
2022-11-24T05:36:51.821Z,20.95
2022-11-24T05:37:25.491Z,19.48
2022-11-24T05:37:58.658Z,20.75
2022-11-24T05:38:30.754Z,20.42
2022-11-24T05:39:02.300Z,22.00
2022-11-24T05:39:38.080Z,20.55
2022-11-24T05:40:09.859Z,20.48
2022-11-24T05:40:42.078Z,20.10
2022-11-24T05:41:13.623Z,21.83
2022-11-24T05:41:45.544Z,21.02
2022-11-24T05:42:35.679Z,20.33
2022-11-24T05:43:14.812Z,21.33
2022-11-24T05:43:46.359Z,18.77
2022-11-24T05:44:17.899Z,20.67
2022-11-24T05:44:49.551Z,20.50
2022-11-24T05:45:22.392Z,20.70
2022-11-24T05:45:53.959Z,19.77
2022-11-24T05:46:25.556Z,20.00
2022-11-24T05:46:57.223Z,20.60
2022-11-24T05:47:28.946Z,19.40
2022-11-24T05:48:08.882Z,19.13
2022-11-24T05:48:40.466Z,18.70
2022-11-24T05:49:12.058Z,19.48
2022-11-24T05:49:43.730Z,19.23
2022-11-24T05:50:18.019Z,19.83
2022-11-24T05:50:56.749Z,20.40
2022-11-24T05:51:28.342Z,20.20
2022-11-24T05:51:59.926Z,18.92
2022-11-24T05:52:31.539Z,18.58
2022-11-24T05:53:05.255Z,19.88
2022-11-24T05:53:36.878Z,19.05
2022-11-24T05:54:08.476Z,20.52
2022-11-24T05:54:40.088Z,19.90
2022-11-24T05:55:12.621Z,20.60
2022-11-24T05:55:44.222Z,21.17
2022-11-24T05:56:15.830Z,20.95
2022-11-24T05:56:47.378Z,21.25
2022-11-24T05:57:19.223Z,20.10
2022-11-24T05:57:58.349Z,21.00
2022-11-24T05:58:30.051Z,19.65
2022-11-24T05:59:06.657Z,20.05
2022-11-24T05:59:41.130Z,20.83
2022-11-24T06:00:13.938Z,20.50
2022-11-24T06:00:45.734Z,19.00
2022-11-24T06:01:17.262Z,19.60
2022-11-24T06:01:48.937Z,20.45
2022-11-24T06:02:20.767Z,20.13
2022-11-24T06:02:52.435Z,18.70
2022-11-24T06:03:24.169Z,18.95
2022-11-24T06:03:55.767Z,19.52
2022-11-24T06:04:27.389Z,18.58
2022-11-24T06:04:58.927Z,18.45
2022-11-24T06:05:30.590Z,20.27
2022-11-24T06:06:03.243Z,19.92
2022-11-24T06:06:34.826Z,20.17
2022-11-24T06:07:11.281Z,19.48
2022-11-24T06:07:42.882Z,18.92
2022-11-24T06:08:15.144Z,19.80
2022-11-24T06:08:46.683Z,19.63
2022-11-24T06:09:18.284Z,19.55
2022-11-24T06:09:49.908Z,17.95
2022-11-24T06:10:24.044Z,19.00
2022-11-24T06:11:17.188Z,19.95
2022-11-24T06:11:49.143Z,18.92
2022-11-24T06:12:20.771Z,18.73
2022-11-24T06:12:52.949Z,19.05
2022-11-24T06:13:24.615Z,19.40
2022-11-24T06:13:56.398Z,18.98
2022-11-24T06:14:28.199Z,20.27
2022-11-24T06:14:59.751Z,18.63
2022-11-24T06:15:31.282Z,19.73
2022-11-24T06:16:02.972Z,21.17
2022-11-24T06:16:34.605Z,20.65
2022-11-24T06:17:06.503Z,20.65
2022-11-24T06:17:38.629Z,19.30
2022-11-24T06:18:10.215Z,19.58
2022-11-24T06:18:41.818Z,18.73
2022-11-24T06:19:13.534Z,20.33
2022-11-24T06:19:47.938Z,18.52
2022-11-24T06:20:19.611Z,20.58
2022-11-24T06:21:09.501Z,18.30
2022-11-24T06:21:42.119Z,18.70
2022-11-24T06:22:13.693Z,18.80
2022-11-24T06:22:45.274Z,20.10
2022-11-24T06:23:16.868Z,19.42
2022-11-24T06:23:48.912Z,19.08
2022-11-24T06:24:20.711Z,18.00
2022-11-24T06:24:52.322Z,19.40
2022-11-24T06:25:23.910Z,18.88
2022-11-24T06:25:58.527Z,19.17
2022-11-24T06:26:30.063Z,19.38
2022-11-24T06:27:01.672Z,18.90
2022-11-24T06:27:33.264Z,18.45
2022-11-24T06:28:05.276Z,19.25
2022-11-24T06:28:36.929Z,19.13
2022-11-24T06:29:08.536Z,19.25
2022-11-24T06:29:40.242Z,19.92
2022-11-24T06:30:12.625Z,18.85
2022-11-24T06:30:44.154Z,20.10
2022-11-24T06:31:15.912Z,19.98
2022-11-24T06:31:47.560Z,18.55
2022-11-24T06:32:19.401Z,17.65
2022-11-24T06:32:54.991Z,19.00
2022-11-24T06:33:26.659Z,18.45
2022-11-24T06:33:59.246Z,18.13
2022-11-24T06:34:30.993Z,18.75
2022-11-24T06:35:02.843Z,18.08
2022-11-24T06:35:34.443Z,18.58
2022-11-24T06:36:08.639Z,18.70
2022-11-24T06:36:40.611Z,20.75
2022-11-24T06:37:12.207Z,19.10
2022-11-24T06:37:43.888Z,19.52
2022-11-24T06:38:20.110Z,18.70
2022-11-24T06:38:55.736Z,17.77
2022-11-24T06:39:27.495Z,18.77
2022-11-24T06:39:59.091Z,18.88
2022-11-24T06:40:30.659Z,18.80
2022-11-24T06:41:08.028Z,18.85
2022-11-24T06:41:39.623Z,18.50
2022-11-24T06:42:11.199Z,18.17
2022-11-24T06:42:42.744Z,18.40
2022-11-24T06:43:16.410Z,18.83
2022-11-24T06:43:48.083Z,18.55
2022-11-24T06:44:19.734Z,18.83
2022-11-24T06:44:51.379Z,18.55
2022-11-24T06:45:23.511Z,18.08
2022-11-24T06:45:55.782Z,18.42
2022-11-24T06:46:27.406Z,19.23
2022-11-24T06:46:58.991Z,18.25
2022-11-24T06:47:30.575Z,19.08
2022-11-24T06:48:02.222Z,19.40
2022-11-24T06:48:34.022Z,19.48
2022-11-24T06:49:05.636Z,17.30
2022-11-24T06:49:37.188Z,19.08
2022-11-24T06:50:10.612Z,18.38
2022-11-24T06:50:42.191Z,17.80
2022-11-24T06:51:13.892Z,19.05
2022-11-24T06:51:45.531Z,19.58
2022-11-24T06:52:17.080Z,18.85
2022-11-24T06:52:48.863Z,18.85
2022-11-24T06:53:20.423Z,18.58
2022-11-24T06:53:52.055Z,19.85
2022-11-24T06:54:23.771Z,19.30
2022-11-24T06:54:55.433Z,18.23
2022-11-24T06:55:27.136Z,18.85
2022-11-24T06:56:00.685Z,18.67
2022-11-24T06:56:32.223Z,18.67
2022-11-24T06:57:03.839Z,19.95
2022-11-24T06:57:35.439Z,20.42
2022-11-24T06:58:07.081Z,19.50
2022-11-24T06:58:46.612Z,18.92
2022-11-24T06:59:20.581Z,18.95
2022-11-24T06:59:52.178Z,19.30
2022-11-24T07:00:23.831Z,20.00
2022-11-24T07:00:55.502Z,19.45
2022-11-24T07:01:29.402Z,20.02
2022-11-24T07:02:00.984Z,20.50
2022-11-24T07:02:32.636Z,19.75
2022-11-24T07:03:05.288Z,21.83
2022-11-24T07:03:37.000Z,20.70
2022-11-24T07:04:08.848Z,19.63
2022-11-24T07:04:40.422Z,21.42
2022-11-24T07:05:12.006Z,20.33
2022-11-24T07:05:44.062Z,19.42
2022-11-24T07:06:17.356Z,20.60